Time;durP1;ratioP1;P1;durP2;ratioP2;P2;SDS_P1;SDS_P2;PMS_P1;PMS_P2;Temp;Humidity;BMP_temperature;BMP_pressure;BME280_temperature;BME280_humidity;BME280_pressure;Samples;Min_cycle;Max_cycle;Signal;HPM_P1;HPM_P2
2023/01/15 00:01:21;;;;;;;0.70;0.65;;;;;;;;;;7402215;19;20356;-71
2023/01/15 00:03:46;;;;;;;0.77;0.70;;;;;;;;;;7394436;19;20448;-73
2023/01/15 00:06:12;;;;;;;0.60;0.60;;;;;;;;;;7396445;19;20005;-71
2023/01/15 00:08:37;;;;;;;1.05;0.70;;;;;;;;;;7394560;19;20019;-71
2023/01/15 00:11:03;;;;;;;0.63;0.63;;;;;;;;;;7395078;19;19995;-72
2023/01/15 00:13:29;;;;;;;0.50;0.50;;;;;;;;;;7393325;19;19995;-71
2023/01/15 00:16:02;;;;;;;1.25;0.70;;;;;;;;;;7394391;19;20348;-70
2023/01/15 00:18:27;;;;;;;1.45;0.65;;;;;;;;;;7391545;19;20070;-72
2023/01/15 00:20:58;;;;;;;0.52;0.50;;;;;;;;;;7395737;19;19999;-71
2023/01/15 00:28:56;;;;;;;0.95;0.70;;;;;;;;;;7392637;19;20027;-71
2023/01/15 00:31:21;;;;;;;0.77;0.70;;;;;;;;;;7393252;19;20024;-71
2023/01/15 00:33:46;;;;;;;0.82;0.70;;;;;;;;;;7391071;19;19994;-71
2023/01/15 00:36:12;;;;;;;0.60;0.60;;;;;;;;;;7393839;19;19999;-72
2023/01/15 00:38:37;;;;;;;0.85;0.70;;;;;;;;;;7392659;19;20025;-73
2023/01/15 00:41:02;;;;;;;0.70;0.70;;;;;;;;;;7392640;19;20024;-73
2023/01/15 00:43:28;;;;;;;0.43;0.43;;;;;;;;;;7392161;19;20006;-72
2023/01/15 00:45:53;;;;;;;0.68;0.50;;;;;;;;;;7393326;19;20066;-71
2023/01/15 00:48:18;;;;;;;1.48;1.10;;;;;;;;;;7392796;19;20002;-71
2023/01/15 00:50:43;;;;;;;1.63;0.88;;;;;;;;;;7393775;19;19995;-72
2023/01/15 00:53:09;;;;;;;1.85;0.80;;;;;;;;;;7390004;19;19994;-72
2023/01/15 00:55:34;;;;;;;0.60;0.60;;;;;;;;;;7393200;19;20002;-72
2023/01/15 00:57:59;;;;;;;3.05;0.82;;;;;;;;;;7392771;19;20019;-72
2023/01/15 01:00:25;;;;;;;1.35;0.65;;;;;;;;;;7393404;19;20527;-73
2023/01/15 01:02:50;;;;;;;0.75;0.75;;;;;;;;;;7391812;19;20089;-73
2023/01/15 01:05:15;;;;;;;1.15;0.80;;;;;;;;;;7392997;19;19998;-72
2023/01/15 01:07:41;;;;;;;1.17;0.70;;;;;;;;;;7392610;19;19999;-73
2023/01/15 01:10:07;;;;;;;1.80;0.70;;;;;;;;;;7393126;19;19991;-71
2023/01/15 01:12:33;;;;;;;1.83;0.90;;;;;;;;;;7388294;19;19995;-73
2023/01/15 01:14:58;;;;;;;0.73;0.70;;;;;;;;;;7392798;19;20008;-72
2023/01/15 01:17:23;;;;;;;1.27;0.65;;;;;;;;;;7393096;19;19994;-73
2023/01/15 01:19:49;;;;;;;0.52;0.52;;;;;;;;;;7390910;19;20609;-73
2023/01/15 01:22:14;;;;;;;1.30;0.55;;;;;;;;;;7392356;19;20468;-71
2023/01/15 01:24:39;;;;;;;2.17;0.75;;;;;;;;;;7390978;19;20460;-73
2023/01/15 01:27:05;;;;;;;1.70;0.60;;;;;;;;;;7393827;19;20018;-74
2023/01/15 01:29:30;;;;;;;2.17;0.63;;;;;;;;;;7390666;19;20405;-72
2023/01/15 01:31:55;;;;;;;0.77;0.70;;;;;;;;;;7391521;19;20506;-73
2023/01/15 01:34:20;;;;;;;0.70;0.55;;;;;;;;;;7390740;19;20450;-72
2023/01/15 01:36:46;;;;;;;0.68;0.68;;;;;;;;;;7391808;19;20456;-72
2023/01/15 01:39:15;;;;;;;0.47;0.47;;;;;;;;;;7390334;19;20105;-72
2023/01/15 01:41:41;;;;;;;0.40;0.40;;;;;;;;;;7394768;19;20015;-72
2023/01/15 01:44:32;;;;;;;0.30;0.30;;;;;;;;;;7390257;19;19987;-73
2023/01/15 01:47:00;;;;;;;0.50;0.50;;;;;;;;;;7392873;19;19995;-72
2023/01/15 01:49:25;;;;;;;0.60;0.50;;;;;;;;;;7390082;19;20102;-72
2023/01/15 01:51:57;;;;;;;0.38;0.38;;;;;;;;;;7391059;19;20314;-73
2023/01/15 01:54:25;;;;;;;0.35;0.32;;;;;;;;;;7390021;19;20007;-72
2023/01/15 01:56:52;;;;;;;0.80;0.63;;;;;;;;;;7391017;19;20002;-73
2023/01/15 01:59:19;;;;;;;0.70;0.52;;;;;;;;;;7390078;19;20511;-71
2023/01/15 02:01:46;;;;;;;0.75;0.32;;;;;;;;;;7391108;19;20015;-72
2023/01/15 02:04:12;;;;;;;1.02;0.60;;;;;;;;;;7389476;19;19994;-72
2023/01/15 02:06:40;;;;;;;1.00;0.55;;;;;;;;;;7389787;19;20010;-72
2023/01/15 02:09:05;;;;;;;1.05;0.63;;;;;;;;;;7387879;19;20020;-72
2023/01/15 02:11:32;;;;;;;0.40;0.40;;;;;;;;;;7390136;19;19994;-72
2023/01/15 02:14:07;;;;;;;0.40;0.40;;;;;;;;;;7389576;19;20358;-71
2023/01/15 02:16:50;;;;;;;1.33;0.70;;;;;;;;;;7390789;19;19998;-72
2023/01/15 02:19:21;;;;;;;0.50;0.50;;;;;;;;;;7389418;19;20056;-71
2023/01/15 02:21:50;;;;;;;0.80;0.40;;;;;;;;;;7392035;19;19998;-72
2023/01/15 02:24:32;;;;;;;0.60;0.45;;;;;;;;;;7389480;19;19995;-72
2023/01/15 02:27:02;;;;;;;0.20;0.20;;;;;;;;;;7390209;19;20003;-72
2023/01/15 02:29:46;;;;;;;0.30;0.25;;;;;;;;;;7388611;19;20075;-72
2023/01/15 02:32:39;;;;;;;0.40;0.35;;;;;;;;;;7389404;19;20087;-72
2023/01/15 02:35:12;;;;;;;0.40;0.30;;;;;;;;;;7390613;19;20755;-71
2023/01/15 02:37:43;;;;;;;0.30;0.30;;;;;;;;;;7389695;19;20479;-71
2023/01/15 02:40:10;;;;;;;0.28;0.20;;;;;;;;;;7390079;19;20448;-71
2023/01/15 02:42:37;;;;;;;0.28;0.28;;;;;;;;;;7389638;19;20018;-71
2023/01/15 02:45:07;;;;;;;0.55;0.22;;;;;;;;;;7390118;19;20015;-72
2023/01/15 02:47:37;;;;;;;0.20;0.20;;;;;;;;;;7390159;19;20002;-72
2023/01/15 02:50:06;;;;;;;0.20;0.20;;;;;;;;;;7390066;19;19998;-72
2023/01/15 02:52:35;;;;;;;0.10;0.10;;;;;;;;;;7387530;19;20003;-72
2023/01/15 02:55:22;;;;;;;0.20;0.20;;;;;;;;;;7389737;19;20326;-72
2023/01/15 02:57:52;;;;;;;0.32;0.32;;;;;;;;;;7389608;19;20452;-72
2023/01/15 03:00:20;;;;;;;0.10;0.10;;;;;;;;;;7389846;19;19990;-72
2023/01/15 03:02:50;;;;;;;0.20;0.20;;;;;;;;;;7388420;19;20377;-72
2023/01/15 03:05:29;;;;;;;1.17;0.45;;;;;;;;;;7389772;19;20016;-71
2023/01/15 03:07:57;;;;;;;1.35;0.30;;;;;;;;;;7388979;19;20007;-71
2023/01/15 03:10:45;;;;;;;0.20;0.20;;;;;;;;;;7389284;19;20439;-72
2023/01/15 03:13:15;;;;;;;0.20;0.20;;;;;;;;;;7385874;19;19991;-72
2023/01/15 03:19:11;;;;;;;0.75;0.20;;;;;;;;;;7388343;19;20270;-72
2023/01/15 03:21:52;;;;;;;0.30;0.22;;;;;;;;;;7393284;19;20503;-70
2023/01/15 03:24:24;;;;;;;0.10;0.10;;;;;;;;;;7395738;19;20006;-72
2023/01/15 03:26:49;;;;;;;0.17;0.17;;;;;;;;;;7397224;19;20003;-72
2023/01/15 03:29:15;;;;;;;0.35;0.22;;;;;;;;;;7394662;19;20483;-71
2023/01/15 03:31:43;;;;;;;2.92;0.52;;;;;;;;;;7395482;19;20006;-72
2023/01/15 03:34:10;;;;;;;0.68;0.40;;;;;;;;;;7394854;19;19987;-71
2023/01/15 03:36:36;;;;;;;2.13;0.57;;;;;;;;;;7395624;19;20100;-73
2023/01/15 03:39:02;;;;;;;0.30;0.30;;;;;;;;;;7398595;19;20018;-72
2023/01/15 03:41:40;;;;;;;0.35;0.35;;;;;;;;;;7394666;19;20349;-72
2023/01/15 03:44:24;;;;;;;0.63;0.22;;;;;;;;;;7399118;19;19999;-72
2023/01/15 03:47:01;;;;;;;0.43;0.43;;;;;;;;;;7395983;19;20023;-72
2023/01/15 03:49:54;;;;;;;0.70;0.45;;;;;;;;;;7393604;19;20020;-72
2023/01/15 03:52:30;;;;;;;0.35;0.30;;;;;;;;;;7394275;19;19998;-72
2023/01/15 03:55:04;;;;;;;0.55;0.40;;;;;;;;;;7397862;19;19994;-72
2023/01/15 03:57:51;;;;;;;0.35;0.20;;;;;;;;;;7395452;19;19990;-71
2023/01/15 04:00:29;;;;;;;0.30;0.30;;;;;;;;;;7393831;19;20002;-72
2023/01/15 04:02:57;;;;;;;2.03;0.30;;;;;;;;;;7393944;19;19998;-72
2023/01/15 04:05:24;;;;;;;0.35;0.35;;;;;;;;;;7394644;19;19998;-72
2023/01/15 04:07:51;;;;;;;1.08;0.25;;;;;;;;;;7392849;19;20071;-71
2023/01/15 04:10:17;;;;;;;8.25;0.85;;;;;;;;;;7395183;19;20469;-72
2023/01/15 04:12:42;;;;;;;1.30;0.28;;;;;;;;;;7391346;19;20000;-72
2023/01/15 04:15:10;;;;;;;0.30;0.20;;;;;;;;;;7394448;19;20005;-72
2023/01/15 04:17:35;;;;;;;0.22;0.22;;;;;;;;;;7392989;19;20024;-73
2023/01/15 04:20:01;;;;;;;1.88;0.43;;;;;;;;;;7394793;19;19994;-73
2023/01/15 04:22:26;;;;;;;0.55;0.50;;;;;;;;;;7393674;19;19995;-71
2023/01/15 04:24:53;;;;;;;0.32;0.32;;;;;;;;;;7397514;19;20091;-70
2023/01/15 04:27:19;;;;;;;0.32;0.32;;;;;;;;;;7394494;19;20018;-71
2023/01/15 04:29:44;;;;;;;0.28;0.28;;;;;;;;;;7390386;19;20058;-72
2023/01/15 04:32:10;;;;;;;0.35;0.30;;;;;;;;;;7391834;19;20050;-72
2023/01/15 04:34:35;;;;;;;0.65;0.38;;;;;;;;;;7393498;19;20007;-71
2023/01/15 04:37:01;;;;;;;1.75;0.30;;;;;;;;;;7394747;19;19987;-71
2023/01/15 04:39:26;;;;;;;0.80;0.38;;;;;;;;;;7392735;19;19998;-71
2023/01/15 04:44:36;;;;;;;0.40;0.40;;;;;;;;;;7392817;19;20066;-70
2023/01/15 04:47:02;;;;;;;0.35;0.35;;;;;;;;;;7392190;19;20511;-71
2023/01/15 04:49:27;;;;;;;1.67;0.50;;;;;;;;;;7391958;19;19994;-71
2023/01/15 04:51:52;;;;;;;0.15;0.15;;;;;;;;;;7392570;19;20009;-71
2023/01/15 04:54:18;;;;;;;0.75;0.60;;;;;;;;;;7391846;19;19991;-71
2023/01/15 04:56:46;;;;;;;0.45;0.38;;;;;;;;;;7391968;19;20358;-71
2023/01/15 04:59:13;;;;;;;0.30;0.30;;;;;;;;;;7391624;19;20050;-72
2023/01/15 05:01:38;;;;;;;0.45;0.45;;;;;;;;;;7393195;19;20467;-71
2023/01/15 05:04:04;;;;;;;0.30;0.30;;;;;;;;;;7391388;19;19999;-71
2023/01/15 05:06:30;;;;;;;0.80;0.30;;;;;;;;;;7393015;19;20001;-71
2023/01/15 05:08:56;;;;;;;1.65;0.52;;;;;;;;;;7390895;19;20455;-71
2023/01/15 05:11:22;;;;;;;0.40;0.40;;;;;;;;;;7393914;19;20392;-72
2023/01/15 05:13:47;;;;;;;0.38;0.38;;;;;;;;;;7393162;19;19999;-72
2023/01/15 05:16:19;;;;;;;2.50;0.68;;;;;;;;;;7394318;19;20005;-71
2023/01/15 05:18:45;;;;;;;1.50;0.47;;;;;;;;;;7393578;19;20025;-71
2023/01/15 05:21:16;;;;;;;2.17;0.43;;;;;;;;;;7392487;19;20027;-71
2023/01/15 05:23:41;;;;;;;0.28;0.28;;;;;;;;;;7391560;19;20392;-72
2023/01/15 05:26:07;;;;;;;0.10;0.10;;;;;;;;;;7391042;19;19998;-72
2023/01/15 05:28:32;;;;;;;0.55;0.40;;;;;;;;;;7391400;19;19999;-73
2023/01/15 05:30:57;;;;;;;0.35;0.35;;;;;;;;;;7391989;19;19994;-72
2023/01/15 05:33:23;;;;;;;0.25;0.20;;;;;;;;;;7390835;19;19999;-72
2023/01/15 05:35:48;;;;;;;0.20;0.20;;;;;;;;;;7392121;19;19995;-72
2023/01/15 05:38:13;;;;;;;0.52;0.40;;;;;;;;;;7391214;19;19995;-72
2023/01/15 05:40:39;;;;;;;0.98;0.32;;;;;;;;;;7392371;19;19995;-71
2023/01/15 05:43:04;;;;;;;0.55;0.50;;;;;;;;;;7393042;19;19991;-72
2023/01/15 05:45:29;;;;;;;0.22;0.22;;;;;;;;;;7391586;19;20456;-71
2023/01/15 05:47:55;;;;;;;2.30;0.70;;;;;;;;;;7395377;19;20068;-71
2023/01/15 05:50:20;;;;;;;0.20;0.20;;;;;;;;;;7391530;19;20019;-72
2023/01/15 05:52:45;;;;;;;0.28;0.28;;;;;;;;;;7389007;19;19995;-71
2023/01/15 05:55:10;;;;;;;0.40;0.40;;;;;;;;;;7394383;19;20008;-72
2023/01/15 05:57:36;;;;;;;0.20;0.20;;;;;;;;;;7391450;19;19998;-72
2023/01/15 06:00:02;;;;;;;0.52;0.50;;;;;;;;;;7390006;19;20337;-72
2023/01/15 06:02:28;;;;;;;2.65;0.57;;;;;;;;;;7391123;19;20488;-72
2023/01/15 06:04:53;;;;;;;0.57;0.40;;;;;;;;;;7390565;19;19995;-73
2023/01/15 06:07:18;;;;;;;0.77;0.52;;;;;;;;;;7391312;19;20005;-72
2023/01/15 06:09:44;;;;;;;0.45;0.40;;;;;;;;;;7389636;19;19991;-72
2023/01/15 06:12:09;;;;;;;0.38;0.38;;;;;;;;;;7390483;19;19991;-72
2023/01/15 06:14:34;;;;;;;0.75;0.55;;;;;;;;;;7389817;19;19995;-72
2023/01/15 06:17:00;;;;;;;0.28;0.28;;;;;;;;;;7391013;19;20335;-72
2023/01/15 06:19:25;;;;;;;0.30;0.30;;;;;;;;;;7390530;19;20010;-72
2023/01/15 06:21:50;;;;;;;1.27;0.47;;;;;;;;;;7390866;19;19991;-71
2023/01/15 06:24:16;;;;;;;2.40;0.60;;;;;;;;;;7389792;19;20006;-71
2023/01/15 06:26:42;;;;;;;1.17;0.45;;;;;;;;;;7390860;19;20003;-73
2023/01/15 06:29:07;;;;;;;0.50;0.50;;;;;;;;;;7389910;19;20002;-72
2023/01/15 06:31:33;;;;;;;1.10;0.70;;;;;;;;;;7395065;19;20015;-71
2023/01/15 06:33:58;;;;;;;0.63;0.63;;;;;;;;;;7389286;19;19998;-71
2023/01/15 06:36:27;;;;;;;0.57;0.50;;;;;;;;;;7390327;19;19995;-71
2023/01/15 06:38:53;;;;;;;0.50;0.50;;;;;;;;;;7392543;19;20006;-71
2023/01/15 06:49:38;;;;;;;0.80;0.68;;;;;;;;;;7388409;19;20026;-71
2023/01/15 06:52:04;;;;;;;0.77;0.55;;;;;;;;;;7393107;19;20359;-71
2023/01/15 06:54:30;;;;;;;0.75;0.73;;;;;;;;;;7394758;19;20010;-72
2023/01/15 06:57:05;;;;;;;0.45;0.32;;;;;;;;;;7401972;19;19995;-72
2023/01/15 06:59:34;;;;;;;1.83;0.55;;;;;;;;;;7399210;19;19995;-71
2023/01/15 07:01:59;;;;;;;1.10;0.93;;;;;;;;;;7401459;19;20009;-72
2023/01/15 07:04:25;;;;;;;1.98;0.60;;;;;;;;;;7399514;19;19994;-72
2023/01/15 07:06:50;;;;;;;0.40;0.40;;;;;;;;;;7400463;19;19996;-71
2023/01/15 07:09:16;;;;;;;0.30;0.30;;;;;;;;;;7397799;19;19999;-72
2023/01/15 07:11:50;;;;;;;1.20;0.68;;;;;;;;;;7397200;19;19995;-71
2023/01/15 07:14:23;;;;;;;0.35;0.35;;;;;;;;;;7399019;19;19998;-72
2023/01/15 07:16:49;;;;;;;0.65;0.52;;;;;;;;;;7400812;19;19994;-71
2023/01/15 07:19:20;;;;;;;1.83;0.95;;;;;;;;;;7396419;19;20045;-72
2023/01/15 07:21:46;;;;;;;4.53;2.40;;;;;;;;;;7400970;19;20014;-71
2023/01/15 07:24:12;;;;;;;1.42;1.08;;;;;;;;;;7397420;19;19987;-72
2023/01/15 07:26:38;;;;;;;1.67;1.50;;;;;;;;;;7399380;19;20088;-72
2023/01/15 07:29:04;;;;;;;2.00;1.30;;;;;;;;;;7399152;19;19999;-72
2023/01/15 07:31:30;;;;;;;1.80;1.10;;;;;;;;;;7399400;19;19995;-72
2023/01/15 07:33:56;;;;;;;2.42;1.30;;;;;;;;;;7395011;19;19995;-72
2023/01/15 07:36:22;;;;;;;0.95;0.80;;;;;;;;;;7398920;19;20038;-72
2023/01/15 07:38:47;;;;;;;0.57;0.57;;;;;;;;;;7395154;19;20467;-71
2023/01/15 07:52:08;;;;;;;0.68;0.28;;;;;;;;;;7393116;19;20091;-71
2023/01/15 07:54:33;;;;;;;0.50;0.30;;;;;;;;;;7396614;19;19991;-71
2023/01/15 07:56:59;;;;;;;0.10;0.10;;;;;;;;;;7395949;19;20090;-72
2023/01/15 07:59:24;;;;;;;0.20;0.20;;;;;;;;;;7394283;19;20002;-71
2023/01/15 08:01:50;;;;;;;0.65;0.30;;;;;;;;;;7395657;19;20442;-71
2023/01/15 08:04:15;;;;;;;0.30;0.30;;;;;;;;;;7394008;19;20003;-71
2023/01/15 08:06:41;;;;;;;0.52;0.52;;;;;;;;;;7393186;19;20013;-72
2023/01/15 08:09:06;;;;;;;0.50;0.50;;;;;;;;;;7393691;19;19999;-71
2023/01/15 08:17:02;;;;;;;2.72;0.75;;;;;;;;;;7395598;19;20031;-71
2023/01/15 08:19:31;;;;;;;0.70;0.70;;;;;;;;;;7392894;19;20536;-71
2023/01/15 08:21:57;;;;;;;1.23;0.77;;;;;;;;;;7395447;19;20006;-71
2023/01/15 08:24:23;;;;;;;0.75;0.75;;;;;;;;;;7391796;19;20005;-70
2023/01/15 08:26:48;;;;;;;0.50;0.50;;;;;;;;;;7394974;19;19999;-70
2023/01/15 08:29:13;;;;;;;0.70;0.70;;;;;;;;;;7391406;19;19998;-71
2023/01/15 08:31:40;;;;;;;1.08;0.75;;;;;;;;;;7393830;19;20022;-71
2023/01/15 08:34:06;;;;;;;2.30;1.40;;;;;;;;;;7392955;19;20061;-70
2023/01/15 08:36:31;;;;;;;2.17;0.70;;;;;;;;;;7394240;19;20477;-70
2023/01/15 08:38:57;;;;;;;2.40;1.20;;;;;;;;;;7393510;19;20097;-71
2023/01/15 08:41:22;;;;;;;0.77;0.47;;;;;;;;;;7392539;19;19998;-70
2023/01/15 08:43:47;;;;;;;1.05;0.60;;;;;;;;;;7393104;19;20010;-72
2023/01/15 08:46:13;;;;;;;1.75;0.50;;;;;;;;;;7394075;19;20003;-71
2023/01/15 08:48:38;;;;;;;0.73;0.50;;;;;;;;;;7392712;19;19999;-72
2023/01/15 08:51:08;;;;;;;1.30;0.70;;;;;;;;;;7394900;19;20058;-71
2023/01/15 08:53:34;;;;;;;0.73;0.57;;;;;;;;;;7395013;19;20019;-71
2023/01/15 08:55:59;;;;;;;0.57;0.30;;;;;;;;;;7397923;19;19998;-70
2023/01/15 08:58:29;;;;;;;0.55;0.55;;;;;;;;;;7406164;19;19994;-70
2023/01/15 09:00:55;;;;;;;1.35;0.73;;;;;;;;;;7404751;19;20019;-71
2023/01/15 09:03:20;;;;;;;2.28;0.60;;;;;;;;;;7397469;19;19994;-71
2023/01/15 09:05:45;;;;;;;1.13;0.57;;;;;;;;;;7394622;19;20005;-71
2023/01/15 09:08:11;;;;;;;0.73;0.55;;;;;;;;;;7390317;19;20491;-72
2023/01/15 09:10:36;;;;;;;0.73;0.50;;;;;;;;;;7393277;19;20349;-71
2023/01/15 09:13:02;;;;;;;2.13;1.20;;;;;;;;;;7390801;19;19995;-71
2023/01/15 09:15:29;;;;;;;0.90;0.70;;;;;;;;;;7393349;19;20349;-71
2023/01/15 09:17:55;;;;;;;0.70;0.70;;;;;;;;;;7392396;19;20477;-71
2023/01/15 09:20:21;;;;;;;0.70;0.70;;;;;;;;;;7393281;19;19998;-71
2023/01/15 09:22:47;;;;;;;0.47;0.47;;;;;;;;;;7391708;19;20216;-71
2023/01/15 09:25:15;;;;;;;1.10;0.57;;;;;;;;;;7391484;19;19994;-70
2023/01/15 09:27:40;;;;;;;1.83;0.60;;;;;;;;;;7394327;19;20023;-74
2023/01/15 09:30:07;;;;;;;0.88;0.68;;;;;;;;;;7393192;19;19999;-70
2023/01/15 09:32:32;;;;;;;0.82;0.70;;;;;;;;;;7391014;19;19994;-71
2023/01/15 09:34:58;;;;;;;1.02;0.75;;;;;;;;;;7392775;19;20019;-70
2023/01/15 09:37:23;;;;;;;0.35;0.35;;;;;;;;;;7392635;19;20005;-73
2023/01/15 09:39:48;;;;;;;0.30;0.30;;;;;;;;;;7393787;19;20001;-71
2023/01/15 09:42:31;;;;;;;0.88;0.45;;;;;;;;;;7392803;19;20003;-69
2023/01/15 09:45:17;;;;;;;0.50;0.50;;;;;;;;;;7395933;19;20019;-69
2023/01/15 09:48:06;;;;;;;1.25;0.55;;;;;;;;;;7391937;19;20006;-74
2023/01/15 09:51:09;;;;;;;0.40;0.40;;;;;;;;;;7393526;19;20491;-74
2023/01/15 09:54:05;;;;;;;4.65;0.60;;;;;;;;;;7390692;19;19999;-74
2023/01/15 09:56:35;;;;;;;1.00;0.47;;;;;;;;;;7392110;19;20073;-75
2023/01/15 09:59:11;;;;;;;0.63;0.63;;;;;;;;;;7394368;19;20481;-75
2023/01/15 10:01:36;;;;;;;2.60;0.70;;;;;;;;;;7392129;19;20482;-77
2023/01/15 10:04:37;;;;;;;1.58;0.90;;;;;;;;;;7390941;19;19999;-78
2023/01/15 10:07:11;;;;;;;1.48;0.60;;;;;;;;;;7392803;19;19997;-77
2023/01/15 10:09:39;;;;;;;1.40;0.38;;;;;;;;;;7390959;19;20301;-77
2023/01/15 10:12:38;;;;;;;0.75;0.57;;;;;;;;;;7394505;19;20452;-78
2023/01/15 10:15:11;;;;;;;0.45;0.45;;;;;;;;;;7394968;19;20407;-78
2023/01/15 10:17:40;;;;;;;0.40;0.40;;;;;;;;;;7384274;19;20010;-79
2023/01/15 10:20:26;;;;;;;1.63;0.50;;;;;;;;;;7385111;19;20006;-79
2023/01/15 10:23:10;;;;;;;0.85;0.40;;;;;;;;;;7382989;19;20018;-78
2023/01/15 10:26:02;;;;;;;0.40;0.40;;;;;;;;;;7384517;19;20037;-74
2023/01/15 10:28:30;;;;;;;0.55;0.30;;;;;;;;;;7369843;19;20014;-78
2023/01/15 10:31:21;;;;;;;0.40;0.40;;;;;;;;;;7390325;19;20359;-84
2023/01/15 10:36:45;;;;;;;0.50;0.43;;;;;;;;;;7387900;19;20007;-72
2023/01/15 10:39:54;;;;;;;0.88;0.50;;;;;;;;;;7385695;19;20010;-72
2023/01/15 10:42:49;;;;;;;0.85;0.60;;;;;;;;;;7084309;19;5010852;-73
2023/01/15 10:45:19;;;;;;;0.82;0.63;;;;;;;;;;7381484;19;20352;-72
2023/01/15 10:47:49;;;;;;;1.15;0.52;;;;;;;;;;7378971;19;20432;-74
2023/01/15 10:50:18;;;;;;;1.55;0.60;;;;;;;;;;7386322;19;20006;-74
2023/01/15 10:52:51;;;;;;;1.38;0.40;;;;;;;;;;7386521;19;20457;-73
2023/01/15 10:55:31;;;;;;;2.40;0.60;;;;;;;;;;7386628;19;20014;-74
2023/01/15 10:58:08;;;;;;;0.50;0.50;;;;;;;;;;7387529;19;20518;-74
2023/01/15 11:00:37;;;;;;;0.55;0.38;;;;;;;;;;7387511;19;20271;-74
2023/01/15 11:03:07;;;;;;;2.78;0.60;;;;;;;;;;7385048;19;20088;-75
2023/01/15 11:05:34;;;;;;;3.90;0.80;;;;;;;;;;7386703;19;20142;-72
2023/01/15 11:08:04;;;;;;;2.60;0.50;;;;;;;;;;7385700;19;20103;-73
2023/01/15 11:10:30;;;;;;;1.05;0.60;;;;;;;;;;7387142;19;20006;-72
2023/01/15 11:19:35;;;;;;;5.60;0.68;;;;;;;;;;7384390;19;20031;-74
2023/01/15 11:19:36;;;;;;;1.27;0.57;;;;;;;;;;7388845;19;20018;-73
2023/01/15 11:22:10;;;;;;;0.50;0.50;;;;;;;;;;7386268;19;20413;-74
2023/01/15 11:24:54;;;;;;;0.68;0.50;;;;;;;;;;7387456;19;20137;-74
2023/01/15 11:27:24;;;;;;;0.88;0.50;;;;;;;;;;7385594;19;20018;-73
2023/01/15 11:29:52;;;;;;;0.30;0.30;;;;;;;;;;7386089;19;20006;-73
2023/01/15 11:32:31;;;;;;;2.13;0.63;;;;;;;;;;7384552;19;20287;-72
2023/01/15 11:35:12;;;;;;;0.50;0.50;;;;;;;;;;7385304;19;20497;-73
2023/01/15 11:37:37;;;;;;;0.30;0.30;;;;;;;;;;7387684;19;20066;-73
2023/01/15 11:40:07;;;;;;;0.60;0.60;;;;;;;;;;7386391;19;20023;-73
2023/01/15 11:51:15;;;;;;;1.55;0.63;;;;;;;;;;7385642;19;20021;-73
2023/01/15 11:53:45;;;;;;;2.90;1.00;;;;;;;;;;7384281;19;20297;-73
2023/01/15 11:56:23;;;;;;;2.63;1.15;;;;;;;;;;7383487;19;20499;-71
2023/01/15 11:58:57;;;;;;;1.05;0.75;;;;;;;;;;7385081;19;20441;-70
2023/01/15 12:01:35;;;;;;;3.50;0.82;;;;;;;;;;7387179;19;20706;-72
2023/01/15 12:04:04;;;;;;;3.63;1.00;;;;;;;;;;7381491;19;20469;-73
2023/01/15 12:06:33;;;;;;;3.25;1.00;;;;;;;;;;7383823;19;20013;-74
2023/01/15 12:09:20;;;;;;;6.65;0.90;;;;;;;;;;7385513;19;20010;-75
2023/01/15 12:12:22;;;;;;;1.33;0.90;;;;;;;;;;7385532;19;20010;-73
2023/01/15 12:14:59;;;;;;;2.25;0.70;;;;;;;;;;7380176;19;20374;-75
2023/01/15 12:17:49;;;;;;;4.53;1.38;;;;;;;;;;7385079;19;20022;-76
2023/01/15 12:20:32;;;;;;;2.60;1.02;;;;;;;;;;7382518;19;20587;-74
2023/01/15 12:23:35;;;;;;;1.70;0.88;;;;;;;;;;7381556;19;20006;-75
2023/01/15 12:26:23;;;;;;;2.15;1.00;;;;;;;;;;7382328;19;20365;-74
2023/01/15 12:28:56;;;;;;;2.78;0.95;;;;;;;;;;7384220;19;20464;-74
2023/01/15 12:31:54;;;;;;;1.60;0.80;;;;;;;;;;7385657;19;20010;-73
2023/01/15 12:34:26;;;;;;;1.80;1.27;;;;;;;;;;7385312;19;20011;-73
2023/01/15 12:36:57;;;;;;;5.32;1.27;;;;;;;;;;7373097;19;20002;-76
2023/01/15 12:39:41;;;;;;;1.52;0.70;;;;;;;;;;7374008;19;20007;-75
2023/01/15 12:45:02;;;;;;;1.17;0.60;;;;;;;;;;7380497;19;20013;-76
2023/01/15 12:47:33;;;;;;;5.07;0.98;;;;;;;;;;7383883;19;20028;-76
2023/01/15 12:50:06;;;;;;;2.80;0.65;;;;;;;;;;7381453;19;20547;-74
2023/01/15 12:52:38;;;;;;;2.35;1.00;;;;;;;;;;7377129;19;20400;-76
2023/01/15 12:55:18;;;;;;;2.97;1.25;;;;;;;;;;7383922;19;20017;-74
2023/01/15 12:57:47;;;;;;;1.52;0.50;;;;;;;;;;7382315;19;20036;-75
2023/01/15 13:00:19;;;;;;;2.00;0.88;;;;;;;;;;7383859;19;19998;-75
2023/01/15 13:02:58;;;;;;;3.28;0.80;;;;;;;;;;7381498;19;20019;-74
2023/01/15 13:05:40;;;;;;;7.22;0.80;;;;;;;;;;7378761;19;20029;-73
2023/01/15 13:08:15;;;;;;;3.38;0.80;;;;;;;;;;7377074;19;20014;-75
2023/01/15 13:10:40;;;;;;;1.50;1.02;;;;;;;;;;7383547;19;20010;-75
2023/01/15 13:13:15;;;;;;;6.88;1.25;;;;;;;;;;7379844;19;20019;-73
2023/01/15 13:16:05;;;;;;;1.65;0.70;;;;;;;;;;7385357;19;20010;-74
2023/01/15 13:18:52;;;;;;;2.40;0.95;;;;;;;;;;7382440;19;20358;-72
2023/01/15 13:21:19;;;;;;;2.67;1.00;;;;;;;;;;7385907;19;20003;-73
2023/01/15 13:24:25;;;;;;;2.55;0.70;;;;;;;;;;7379812;19;20022;-72
2023/01/15 13:27:05;;;;;;;1.13;0.52;;;;;;;;;;7380898;19;20401;-73
2023/01/15 13:29:57;;;;;;;2.33;1.23;;;;;;;;;;7387921;19;20035;-76
2023/01/15 13:32:31;;;;;;;3.25;0.85;;;;;;;;;;7387691;19;20041;-73
2023/01/15 13:35:10;;;;;;;2.33;0.80;;;;;;;;;;7387219;19;20014;-74
2023/01/15 13:37:47;;;;;;;3.42;0.60;;;;;;;;;;7392606;19;19998;-75
2023/01/15 13:40:37;;;;;;;2.22;0.98;;;;;;;;;;7389046;19;20005;-74
2023/01/15 13:43:05;;;;;;;2.88;1.25;;;;;;;;;;7386638;19;20002;-73
2023/01/15 13:45:38;;;;;;;3.20;0.90;;;;;;;;;;7387589;19;19994;-73
2023/01/15 13:48:22;;;;;;;5.38;1.25;;;;;;;;;;7380018;19;20002;-74
2023/01/15 13:50:56;;;;;;;4.43;1.08;;;;;;;;;;7379226;19;20005;-74
2023/01/15 13:53:58;;;;;;;2.70;1.02;;;;;;;;;;7378041;19;19999;-74
2023/01/15 13:56:29;;;;;;;3.80;1.20;;;;;;;;;;7376548;19;20352;-75
2023/01/15 13:58:59;;;;;;;;;;;;;;;;;;7377043;19;20453;-69
2023/01/15 14:01:30;;;;;;;2.15;0.80;;;;;;;;;;7379066;19;19910;-74
2023/01/15 14:04:05;;;;;;;;;;;;;;;;;;7373216;19;20114;-74
2023/01/15 14:06:42;;;;;;;4.43;1.33;;;;;;;;;;7378132;19;19926;-74
2023/01/15 14:09:28;;;;;;;1.98;0.85;;;;;;;;;;7376413;19;20744;-75
2023/01/15 14:12:06;;;;;;;5.25;1.08;;;;;;;;;;7371243;19;20035;-74
2023/01/15 14:14:34;;;;;;;2.53;1.05;;;;;;;;;;7375207;19;20073;-74
2023/01/15 14:17:22;;;;;;;3.35;1.05;;;;;;;;;;7379238;19;20006;-76
2023/01/15 14:20:16;;;;;;;2.17;0.93;;;;;;;;;;7380920;19;20007;-75
2023/01/15 14:22:59;;;;;;;3.35;1.20;;;;;;;;;;7378295;19;20078;-75
2023/01/15 14:25:39;;;;;;;3.05;1.05;;;;;;;;;;7380608;19;20037;-75
2023/01/15 14:28:30;;;;;;;2.97;0.80;;;;;;;;;;7379542;19;20002;-76
2023/01/15 14:31:24;;;;;;;2.70;1.20;;;;;;;;;;7379309;19;20022;-75
2023/01/15 14:34:16;;;;;;;5.78;1.42;;;;;;;;;;7378872;19;20082;-75
2023/01/15 14:36:50;;;;;;;1.92;0.98;;;;;;;;;;7377236;19;20023;-76
2023/01/15 14:39:26;;;;;;;1.75;0.90;;;;;;;;;;7378735;19;20002;-75
2023/01/15 14:44:55;;;;;;;3.00;1.00;;;;;;;;;;7374858;19;20320;-77
2023/01/15 14:47:34;;;;;;;5.80;1.23;;;;;;;;;;7374878;19;20123;-74
2023/01/15 14:50:21;;;;;;;8.35;1.70;;;;;;;;;;7378523;19;20152;-74
2023/01/15 14:52:48;;;;;;;5.90;1.55;;;;;;;;;;7375664;19;20002;-75
2023/01/15 14:55:15;;;;;;;3.03;1.02;;;;;;;;;;7380611;19;20033;-74
2023/01/15 14:57:44;;;;;;;6.95;1.75;;;;;;;;;;7380124;19;20003;-74
2023/01/15 15:00:16;;;;;;;3.78;1.10;;;;;;;;;;7381884;19;20066;-74
2023/01/15 15:02:43;;;;;;;5.70;1.20;;;;;;;;;;7379689;19;20022;-74
2023/01/15 15:05:14;;;;;;;3.70;1.58;;;;;;;;;;7379478;19;19991;-75
2023/01/15 15:07:42;;;;;;;;;;;;;;;;;;7380454;19;20071;-75
2023/01/15 15:10:23;;;;;;;6.07;1.20;;;;;;;;;;7373651;19;19914;-75
2023/01/15 15:13:31;;;;;;;5.88;1.88;;;;;;;;;;7376356;19;20330;-75
2023/01/15 15:16:18;;;;;;;3.05;1.23;;;;;;;;;;7375088;19;20349;-75
2023/01/15 15:18:57;;;;;;;1.45;0.90;;;;;;;;;;7383947;19;20002;-75
2023/01/15 15:21:28;;;;;;;2.83;1.05;;;;;;;;;;7386221;19;20070;-75
2023/01/15 15:23:54;;;;;;;4.25;1.08;;;;;;;;;;7384999;19;19995;-75
2023/01/15 15:26:37;;;;;;;3.28;0.82;;;;;;;;;;7387126;19;19990;-75
2023/01/15 15:29:11;;;;;;;5.43;1.15;;;;;;;;;;7387118;19;20317;-75
2023/01/15 15:31:39;;;;;;;2.20;0.93;;;;;;;;;;7385454;19;20087;-75
2023/01/15 15:34:07;;;;;;;2.05;0.90;;;;;;;;;;7380215;19;20002;-75
2023/01/15 15:36:36;;;;;;;7.18;1.52;;;;;;;;;;7383271;19;19998;-74
2023/01/15 15:39:15;;;;;;;4.35;0.75;;;;;;;;;;7382646;19;20007;-73
2023/01/15 15:50:31;;;;;;;6.53;1.30;;;;;;;;;;7384078;19;20135;-74
2023/01/15 15:52:57;;;;;;;8.52;2.72;;;;;;;;;;7378751;19;20010;-75
2023/01/15 15:55:26;;;;;;;4.05;1.10;;;;;;;;;;7385421;19;20031;-78
2023/01/15 15:57:56;;;;;;;7.30;2.00;;;;;;;;;;7375809;19;20017;-75
2023/01/15 16:00:40;;;;;;;2.97;1.13;;;;;;;;;;7372398;19;20006;-77
2023/01/15 16:03:21;;;;;;;2.80;0.75;;;;;;;;;;7380276;19;20010;-74
2023/01/15 16:06:00;;;;;;;3.92;1.20;;;;;;;;;;7382302;19;20023;-75
2023/01/15 16:08:27;;;;;;;3.97;1.13;;;;;;;;;;7386831;19;20002;-74
2023/01/15 16:10:56;;;;;;;2.20;1.17;;;;;;;;;;7386390;19;20070;-73
2023/01/15 16:13:28;;;;;;;5.82;0.93;;;;;;;;;;7381408;19;19999;-74
2023/01/15 16:15:56;;;;;;;5.03;0.82;;;;;;;;;;7384278;19;20007;-73